createdAt,value
2022-12-17T00:02:42.494Z,84.81
2022-12-17T00:06:03.971Z,85.46
2022-12-17T00:09:26.997Z,85.01
2022-12-17T00:12:47.910Z,85.22
2022-12-17T00:16:12.014Z,85.35
2022-12-17T00:19:32.889Z,85.04
2022-12-17T00:22:53.090Z,85.91
2022-12-17T00:26:15.165Z,84.78
2022-12-17T00:29:35.891Z,85.25
2022-12-17T00:32:56.676Z,85.25
2022-12-17T00:36:17.287Z,85.85
2022-12-17T00:39:37.475Z,85.89
2022-12-17T00:42:58.547Z,86.06
2022-12-17T00:46:22.014Z,85.46
2022-12-17T00:49:43.794Z,85.86
2022-12-17T00:53:04.111Z,86.05
2022-12-17T00:56:24.897Z,85.27
2022-12-17T00:59:46.382Z,85.81
2022-12-17T01:03:06.921Z,85.77
2022-12-17T01:06:31.355Z,85.70
2022-12-17T01:09:52.507Z,85.12
2022-12-17T01:13:30.680Z,86.48
2022-12-17T01:16:51.954Z,85.34
2022-12-17T01:20:12.821Z,84.63
2022-12-17T01:23:34.589Z,83.94
2022-12-17T01:26:56.237Z,83.48
2022-12-17T01:30:16.883Z,83.47
2022-12-17T01:33:37.818Z,83.80
2022-12-17T01:36:58.544Z,83.91
2022-12-17T01:40:19.315Z,83.02
2022-12-17T01:43:54.000Z,83.09
2022-12-17T01:47:14.468Z,83.01
2022-12-17T01:50:37.192Z,82.89
2022-12-17T01:54:12.791Z,83.58
2022-12-17T01:57:33.504Z,82.80
2022-12-17T02:00:54.417Z,81.66
2022-12-17T02:04:15.163Z,81.59
2022-12-17T02:07:45.171Z,82.24
2022-12-17T02:11:05.399Z,82.02
2022-12-17T02:14:32.493Z,82.81
2022-12-17T02:18:04.923Z,82.33
2022-12-17T02:21:26.475Z,82.21
2022-12-17T02:25:01.546Z,82.76
2022-12-17T02:28:22.867Z,82.47
2022-12-17T02:31:45.931Z,82.64
2022-12-17T02:35:07.057Z,83.67
2022-12-17T02:38:56.627Z,83.03
2022-12-17T02:42:18.083Z,83.05
2022-12-17T02:45:39.043Z,81.63
2022-12-17T02:49:00.562Z,82.39
2022-12-17T02:52:23.084Z,82.33
2022-12-17T02:55:43.347Z,80.91
2022-12-17T02:59:04.170Z,81.64
2022-12-17T03:02:25.085Z,81.20
2022-12-17T03:05:46.146Z,81.54
2022-12-17T03:09:06.534Z,80.81
2022-12-17T03:12:26.971Z,80.90
2022-12-17T03:15:47.644Z,81.11
2022-12-17T03:19:10.608Z,81.23
2022-12-17T03:22:31.141Z,81.55
2022-12-17T03:25:51.321Z,81.60
2022-12-17T03:29:12.245Z,81.50
2022-12-17T03:32:32.946Z,81.68
2022-12-17T03:35:53.383Z,81.52
2022-12-17T03:39:14.140Z,80.67
2022-12-17T03:42:36.097Z,80.87
2022-12-17T03:45:57.232Z,81.12
2022-12-17T03:49:18.049Z,81.54
2022-12-17T03:52:38.778Z,81.58
2022-12-17T03:56:00.923Z,81.76
2022-12-17T03:59:21.461Z,82.19
2022-12-17T04:02:42.934Z,80.84
2022-12-17T04:06:03.698Z,80.70
2022-12-17T04:09:24.545Z,81.17
2022-12-17T04:12:45.123Z,80.65
2022-12-17T04:16:05.803Z,80.33
2022-12-17T04:19:27.522Z,80.46
2022-12-17T04:22:48.483Z,80.50
2022-12-17T04:26:09.097Z,80.52
2022-12-17T04:29:29.856Z,80.03
2022-12-17T04:32:52.556Z,79.63
2022-12-17T04:36:14.660Z,79.72
2022-12-17T04:39:35.945Z,80.27
2022-12-17T04:42:56.061Z,79.23
2022-12-17T04:46:17.323Z,79.31
2022-12-17T04:49:37.646Z,78.40
2022-12-17T04:52:58.452Z,79.37
2022-12-17T04:56:19.022Z,79.04
2022-12-17T04:59:39.798Z,78.29
2022-12-17T05:03:02.937Z,78.57
2022-12-17T05:06:23.475Z,79.07
2022-12-17T05:09:44.836Z,78.25
2022-12-17T05:13:05.656Z,77.89
2022-12-17T05:16:26.798Z,77.89
2022-12-17T05:19:47.748Z,77.61
2022-12-17T05:23:08.221Z,76.98
2022-12-17T05:26:49.647Z,77.51
2022-12-17T05:30:10.421Z,75.84
2022-12-17T05:33:30.719Z,75.86
2022-12-17T05:36:51.357Z,76.31
2022-12-17T05:40:13.005Z,75.68
2022-12-17T05:43:33.906Z,77.40
2022-12-17T05:46:54.923Z,76.62
2022-12-17T05:50:15.775Z,75.81
2022-12-17T05:53:38.746Z,75.50
2022-12-17T05:56:59.924Z,75.79
2022-12-17T06:00:20.887Z,75.32
2022-12-17T06:03:42.147Z,74.84
2022-12-17T06:07:03.948Z,75.86
2022-12-17T06:10:35.336Z,75.30
2022-12-17T06:13:56.119Z,76.01
2022-12-17T06:17:16.792Z,75.90
2022-12-17T06:20:37.400Z,76.20
2022-12-17T06:23:58.051Z,75.64
2022-12-17T06:27:18.318Z,75.22
2022-12-17T06:30:38.886Z,75.58
2022-12-17T06:33:59.869Z,75.89
2022-12-17T06:37:21.687Z,76.14
2022-12-17T06:40:43.677Z,75.13
2022-12-17T06:44:19.716Z,74.99
2022-12-17T06:47:40.386Z,75.94
2022-12-17T06:51:01.874Z,75.27
2022-12-17T06:54:22.958Z,74.76
2022-12-17T06:57:48.797Z,74.79
2022-12-17T07:01:11.297Z,73.91
2022-12-17T07:04:32.614Z,74.60
2022-12-17T07:07:52.855Z,73.71
2022-12-17T07:11:17.844Z,74.06
2022-12-17T07:14:41.261Z,73.84
2022-12-17T07:18:04.817Z,74.17
2022-12-17T07:21:25.566Z,74.42
2022-12-17T07:24:46.440Z,73.53
2022-12-17T07:28:14.729Z,73.46
2022-12-17T07:31:35.377Z,74.30
2022-12-17T07:34:58.087Z,73.01
2022-12-17T07:38:20.106Z,72.58
2022-12-17T07:41:41.000Z,72.45
2022-12-17T07:45:01.970Z,72.58
2022-12-17T07:48:22.556Z,71.71
2022-12-17T07:51:43.011Z,72.26
2022-12-17T07:55:04.810Z,72.19
2022-12-17T07:58:29.095Z,72.07
2022-12-17T08:01:51.040Z,70.48
2022-12-17T08:05:12.442Z,71.12
2022-12-17T08:08:33.647Z,70.49
2022-12-17T08:11:54.587Z,71.19
2022-12-17T08:15:15.000Z,70.31
2022-12-17T08:18:35.698Z,70.77
2022-12-17T08:21:56.682Z,70.24
2022-12-17T08:25:17.450Z,70.77
2022-12-17T08:28:53.634Z,70.92
2022-12-17T08:32:15.994Z,71.26
2022-12-17T08:35:36.673Z,69.91
2022-12-17T08:38:57.320Z,71.30
2022-12-17T08:42:18.144Z,70.96
2022-12-17T08:45:38.951Z,71.05
2022-12-17T08:48:59.474Z,70.97
2022-12-17T08:52:21.048Z,70.99
2022-12-17T08:55:42.044Z,70.75
2022-12-17T08:59:03.385Z,70.15
2022-12-17T09:02:23.749Z,69.51
2022-12-17T09:05:44.245Z,69.26
2022-12-17T09:09:05.276Z,69.31
2022-12-17T09:12:26.969Z,69.48
2022-12-17T09:15:50.038Z,70.17
2022-12-17T09:19:10.877Z,71.44
2022-12-17T09:22:32.683Z,71.11
2022-12-17T09:25:58.008Z,70.83
2022-12-17T09:29:19.048Z,70.06
2022-12-17T09:32:39.529Z,70.10
2022-12-17T09:36:00.557Z,70.27
2022-12-17T09:39:21.643Z,69.99
2022-12-17T09:42:48.317Z,69.67
2022-12-17T09:46:21.500Z,69.39
2022-12-17T09:49:45.519Z,69.19
2022-12-17T09:53:07.478Z,68.56
2022-12-17T09:56:34.246Z,69.18
2022-12-17T09:59:56.146Z,69.40
2022-12-17T10:03:16.928Z,68.62
2022-12-17T10:06:42.555Z,68.86
2022-12-17T10:10:03.643Z,68.38
2022-12-17T10:13:34.886Z,68.46
2022-12-17T10:17:10.094Z,68.43
2022-12-17T10:20:58.119Z,67.78
2022-12-17T10:24:29.512Z,68.15
2022-12-17T10:27:50.388Z,68.16
2022-12-17T10:31:11.926Z,68.79
2022-12-17T10:34:36.587Z,68.08
2022-12-17T10:37:57.305Z,67.55
2022-12-17T10:41:18.235Z,67.65
2022-12-17T10:44:43.924Z,67.81
2022-12-17T10:48:04.480Z,67.71
2022-12-17T10:51:51.999Z,68.43
2022-12-17T10:55:19.754Z,67.26
2022-12-17T10:58:48.178Z,67.14
2022-12-17T11:02:16.772Z,67.79
2022-12-17T11:05:52.821Z,66.64
2022-12-17T11:09:19.087Z,67.14
2022-12-17T11:12:44.562Z,66.73
2022-12-17T11:16:12.024Z,66.14
2022-12-17T11:19:32.328Z,66.10
2022-12-17T11:23:13.044Z,66.57
2022-12-17T11:26:37.402Z,66.49
2022-12-17T11:29:58.380Z,67.16
2022-12-17T11:33:27.085Z,66.76
2022-12-17T11:37:00.885Z,66.47
2022-12-17T11:40:36.945Z,67.35
2022-12-17T11:44:33.419Z,67.44
2022-12-17T11:48:16.600Z,67.10
2022-12-17T11:52:28.111Z,67.69
2022-12-17T11:56:26.078Z,67.79
2022-12-17T11:59:57.101Z,67.91
2022-12-17T12:03:35.611Z,67.52
2022-12-17T12:07:08.093Z,66.67
2022-12-17T12:11:14.938Z,66.66
2022-12-17T12:14:37.969Z,66.76
2022-12-17T12:18:03.681Z,65.89
2022-12-17T12:21:48.401Z,66.64
2022-12-17T12:25:25.333Z,66.67
2022-12-17T12:28:55.812Z,66.73
2022-12-17T12:32:40.041Z,67.41
2022-12-17T12:36:01.239Z,66.90
2022-12-17T12:39:24.181Z,66.81
2022-12-17T12:42:58.709Z,67.04
2022-12-17T12:47:00.119Z,65.94
2022-12-17T12:50:44.678Z,66.24
2022-12-17T12:54:26.137Z,66.38
2022-12-17T12:57:58.775Z,67.40
2022-12-17T13:01:23.472Z,67.40
2022-12-17T13:04:52.815Z,67.22
2022-12-17T13:08:03.666Z,67.98
2022-12-17T13:11:28.335Z,67.91
2022-12-17T13:14:39.426Z,66.85
2022-12-17T13:17:59.556Z,67.90
2022-12-17T13:21:05.990Z,67.71
2022-12-17T13:24:13.602Z,67.33
2022-12-17T13:27:34.505Z,67.42
2022-12-17T13:30:39.591Z,67.21
2022-12-17T13:34:03.024Z,66.62
2022-12-17T13:37:21.551Z,66.82
2022-12-17T13:40:40.181Z,67.17
2022-12-17T13:43:49.158Z,67.50
2022-12-17T13:46:55.748Z,67.20
2022-12-17T13:53:22.975Z,67.41
2022-12-17T13:56:29.324Z,67.96
2022-12-17T13:59:31.234Z,67.40
2022-12-17T14:02:36.899Z,67.32
2022-12-17T14:05:47.863Z,67.36
2022-12-17T14:08:52.849Z,67.66
2022-12-17T14:12:13.831Z,67.47
2022-12-17T14:15:27.144Z,67.71
2022-12-17T14:18:29.123Z,68.16
2022-12-17T14:21:32.970Z,67.72
2022-12-17T14:24:35.288Z,68.54
2022-12-17T14:27:37.331Z,69.11
2022-12-17T14:31:02.664Z,68.41
2022-12-17T14:34:11.835Z,69.01
2022-12-17T14:37:26.154Z,68.42
2022-12-17T14:40:29.536Z,68.76
2022-12-17T14:43:33.849Z,68.41
2022-12-17T14:46:36.083Z,69.88
2022-12-17T14:49:55.228Z,69.71
2022-12-17T14:53:00.792Z,69.09
2022-12-17T14:56:04.252Z,68.83
2022-12-17T14:59:21.860Z,68.84
2022-12-17T15:02:30.391Z,70.46
2022-12-17T15:05:32.718Z,69.81
2022-12-17T15:08:39.575Z,69.97
2022-12-17T15:11:41.843Z,69.00
2022-12-17T15:14:44.397Z,69.49
2022-12-17T15:17:46.884Z,69.80
2022-12-17T15:20:49.932Z,69.16
2022-12-17T15:23:53.118Z,69.22
2022-12-17T15:26:57.821Z,69.49
2022-12-17T15:29:59.788Z,68.75
2022-12-17T15:33:02.539Z,69.27
2022-12-17T15:36:06.401Z,69.25
2022-12-17T15:39:10.086Z,68.39
2022-12-17T15:42:30.494Z,68.88
2022-12-17T15:45:32.444Z,69.49
2022-12-17T15:48:35.325Z,68.87
2022-12-17T15:51:37.471Z,69.52
2022-12-17T15:54:40.644Z,69.87
2022-12-17T15:57:42.587Z,69.09
2022-12-17T16:00:45.622Z,69.05
2022-12-17T16:03:47.821Z,68.59
2022-12-17T16:06:50.043Z,68.83
2022-12-17T16:09:52.721Z,69.06
2022-12-17T16:12:54.594Z,69.32
2022-12-17T16:16:03.937Z,69.47
2022-12-17T16:19:06.373Z,69.40
2022-12-17T16:22:08.729Z,69.62
2022-12-17T16:25:11.162Z,69.44
2022-12-17T16:28:13.401Z,69.48
2022-12-17T16:31:16.239Z,69.60
2022-12-17T16:34:18.529Z,69.93
2022-12-17T16:37:22.116Z,70.40
2022-12-17T16:40:24.318Z,70.17
2022-12-17T16:43:27.720Z,69.75
2022-12-17T16:46:35.769Z,69.49
2022-12-17T16:49:37.735Z,69.55
2022-12-17T16:52:40.428Z,69.21
2022-12-17T16:55:44.868Z,69.38
2022-12-17T16:58:49.518Z,69.03
2022-12-17T17:01:56.947Z,70.20
2022-12-17T17:04:58.791Z,69.54
2022-12-17T17:08:00.811Z,69.09
2022-12-17T17:11:23.464Z,69.50
2022-12-17T17:14:28.936Z,69.68
2022-12-17T17:17:55.979Z,70.67
2022-12-17T17:20:52.732Z,70.54
2022-12-17T17:24:01.393Z,70.36
2022-12-17T17:27:03.399Z,70.55
2022-12-17T17:30:05.958Z,71.20
2022-12-17T17:33:08.008Z,71.00
2022-12-17T17:36:12.111Z,71.30
2022-12-17T17:39:15.404Z,71.49
2022-12-17T17:42:17.742Z,71.18
2022-12-17T17:45:19.803Z,71.30
2022-12-17T17:48:22.372Z,72.01
2022-12-17T17:52:07.394Z,72.20
2022-12-17T17:54:53.372Z,71.74
2022-12-17T17:57:55.293Z,71.25
2022-12-17T18:01:06.863Z,71.59
2022-12-17T18:04:15.513Z,71.88
2022-12-17T18:07:27.000Z,72.04
2022-12-17T18:10:29.740Z,71.99
2022-12-17T18:13:50.809Z,73.49
2022-12-17T18:16:52.964Z,73.31
2022-12-17T18:19:55.769Z,72.71
2022-12-17T18:22:57.995Z,73.23
2022-12-17T18:26:06.847Z,73.15
2022-12-17T18:29:16.744Z,73.71
2022-12-17T18:32:18.834Z,74.03
2022-12-17T18:35:22.377Z,73.69
2022-12-17T18:38:24.766Z,74.46
2022-12-17T18:41:46.336Z,74.41
2022-12-17T18:44:48.670Z,73.79
2022-12-17T18:47:51.455Z,73.87
2022-12-17T18:51:02.468Z,73.85
2022-12-17T18:54:09.768Z,74.46
2022-12-17T18:57:12.232Z,73.84
2022-12-17T19:00:16.148Z,73.68
2022-12-17T19:03:18.096Z,73.38
2022-12-17T19:06:22.275Z,73.00
2022-12-17T19:09:28.826Z,73.48
2022-12-17T19:12:31.834Z,73.59
2022-12-17T19:15:36.529Z,73.61
2022-12-17T19:18:39.567Z,73.51
2022-12-17T19:21:43.049Z,73.26
2022-12-17T19:24:45.369Z,72.49
2022-12-17T19:27:47.584Z,72.68
2022-12-17T19:30:56.831Z,72.83
2022-12-17T19:34:01.851Z,72.53
2022-12-17T19:37:04.745Z,73.26
2022-12-17T19:40:09.483Z,72.81
2022-12-17T19:43:11.660Z,73.55
2022-12-17T19:46:18.984Z,72.35
2022-12-17T19:49:22.942Z,73.16
2022-12-17T19:52:29.583Z,72.14
2022-12-17T19:55:32.021Z,72.26
2022-12-17T19:58:34.204Z,72.58
2022-12-17T20:01:42.855Z,72.20
2022-12-17T20:04:45.521Z,72.08
2022-12-17T20:07:47.732Z,72.39
2022-12-17T20:10:50.077Z,72.32
2022-12-17T20:14:02.379Z,72.75
2022-12-17T20:17:07.960Z,71.85
2022-12-17T20:20:10.453Z,72.02
2022-12-17T20:23:13.022Z,72.91
2022-12-17T20:26:16.305Z,73.23
2022-12-17T20:29:21.420Z,72.74
2022-12-17T20:32:24.399Z,72.69
2022-12-17T20:35:27.780Z,73.14
2022-12-17T20:38:29.646Z,73.36
2022-12-17T20:41:33.312Z,72.98
2022-12-17T20:44:35.387Z,73.71
2022-12-17T20:47:37.933Z,73.01
2022-12-17T20:50:42.853Z,73.26
2022-12-17T20:53:46.240Z,72.81
2022-12-17T20:56:48.482Z,73.32
2022-12-17T20:59:50.873Z,72.78
2022-12-17T21:02:53.353Z,73.62
2022-12-17T21:05:57.394Z,73.29
2022-12-17T21:08:59.791Z,73.05
2022-12-17T21:12:01.907Z,73.81
2022-12-17T21:15:04.875Z,73.03
2022-12-17T21:18:10.966Z,72.83
2022-12-17T21:21:18.642Z,73.20
2022-12-17T21:24:20.903Z,72.69
2022-12-17T21:27:23.331Z,73.12
2022-12-17T21:30:27.904Z,72.45
2022-12-17T21:33:30.332Z,73.53
2022-12-17T21:36:34.089Z,73.03
2022-12-17T21:39:36.021Z,72.42
2022-12-17T21:42:56.403Z,72.59
2022-12-17T21:45:59.791Z,72.39
2022-12-17T21:49:04.840Z,72.58
2022-12-17T21:52:09.603Z,72.73
2022-12-17T21:55:13.567Z,72.96
2022-12-17T21:58:15.923Z,72.65
2022-12-17T22:01:18.946Z,72.71
2022-12-17T22:04:22.768Z,71.93
2022-12-17T22:07:35.526Z,72.33
2022-12-17T22:10:48.686Z,72.50
2022-12-17T22:14:18.795Z,72.57
2022-12-17T22:17:23.025Z,72.26
2022-12-17T22:20:25.079Z,72.54
2022-12-17T22:23:28.002Z,72.75
2022-12-17T22:26:30.410Z,72.59
2022-12-17T22:29:51.293Z,73.17
2022-12-17T22:33:08.531Z,72.72
2022-12-17T22:37:21.336Z,72.67
2022-12-17T22:43:20.594Z,72.62
2022-12-17T22:44:38.996Z,73.22
2022-12-17T22:46:40.751Z,73.31
2022-12-17T22:49:43.761Z,72.92
2022-12-17T22:52:47.507Z,73.48
2022-12-17T22:55:51.074Z,73.61
2022-12-17T22:58:53.434Z,73.49
2022-12-17T23:01:58.236Z,73.15
2022-12-17T23:05:00.707Z,72.69
2022-12-17T23:08:02.961Z,73.51
2022-12-17T23:11:10.447Z,73.70
2022-12-17T23:14:12.836Z,73.97
2022-12-17T23:17:15.367Z,73.16
2022-12-17T23:20:20.178Z,73.77
2022-12-17T23:23:22.270Z,73.46
2022-12-17T23:26:27.424Z,74.03
2022-12-17T23:29:30.426Z,74.50
2022-12-17T23:32:32.478Z,73.87
2022-12-17T23:35:35.455Z,73.63
2022-12-17T23:38:39.316Z,74.26
2022-12-17T23:41:41.492Z,73.26
2022-12-17T23:44:43.654Z,73.90
2022-12-17T23:47:45.533Z,73.47
2022-12-17T23:50:48.477Z,73.95
2022-12-17T23:53:50.941Z,73.80
2022-12-17T23:56:53.184Z,74.12
2022-12-17T23:59:55.165Z,73.35
